Dola, Ohio
Current Conditions -  °F | °C
As of 5:53 PM on Saturday 25 Oct 2014 (Local Time) from KFDY Reporting Station
Haze Haze  
Wind Chill: 68°   Ceiling: Unl
Heat Index: 68°   Visibility: 5mi
Dew Point: 42°   Wind: 16mph
Humidity: 39%   Direction: 270°W
Pressure: 29.82"   Gusts: 28mph
Location:  40.78°N, 83.69°W
Report Text: KFDY 252153Z AUTO 27014G24KT 5SM HZ CLR 20/06 A2982 RMK AO2 PK WND 27027/2109 SLP093 T02000056
Loading
Personal Weather Stations






























Interactive Weather Map
Tropical Storm Tracking
New forecast layout! Learn more

10-Day Weather Forecast

Advertisements
Track Severe Weather on mobile